sensor_id;sensor_type;location;lat;lon;timestamp;pressure;altitude;pressure_sealevel;temperature;humidity
40920;BME280;26652;50.280;19.026;2023-05-19T00:00:43;99230.44;;;9.95;100.00
40920;BME280;26652;50.280;19.026;2023-05-19T00:02:52;99229.00;;;9.93;100.00
40920;BME280;26652;50.280;19.026;2023-05-19T00:04:53;99236.19;;;10.05;100.00
40920;BME280;26652;50.280;19.026;2023-05-19T00:06:55;99219.28;;;9.88;100.00
40920;BME280;26652;50.280;19.026;2023-05-19T00:09:01;99226.31;;;9.94;100.00
40920;BME280;26652;50.280;19.026;2023-05-19T00:11:03;99210.81;;;9.79;100.00
40920;BME280;26652;50.280;19.026;2023-05-19T00:13:04;99228.97;;;9.84;100.00
40920;BME280;26652;50.280;19.026;2023-05-19T00:15:05;99231.84;;;9.90;100.00
40920;BME280;26652;50.280;19.026;2023-05-19T00:17:07;99247.59;;;9.93;100.00
40920;BME280;26652;50.280;19.026;2023-05-19T00:19:08;99231.53;;;9.93;100.00
40920;BME280;26652;50.280;19.026;2023-05-19T00:21:11;99222.44;;;9.82;100.00
40920;BME280;26652;50.280;19.026;2023-05-19T00:23:12;99220.56;;;9.92;100.00
40920;BME280;26652;50.280;19.026;2023-05-19T00:25:13;99226.31;;;9.94;100.00
40920;BME280;26652;50.280;19.026;2023-05-19T00:27:14;99226.78;;;9.98;100.00
40920;BME280;26652;50.280;19.026;2023-05-19T00:29:14;99227.13;;;10.03;100.00
40920;BME280;26652;50.280;19.026;2023-05-19T00:31:18;99215.97;;;9.96;100.00
40920;BME280;26652;50.280;19.026;2023-05-19T00:33:19;99218.84;;;10.01;100.00
40920;BME280;26652;50.280;19.026;2023-05-19T00:35:20;99219.81;;;10.00;100.00
40920;BME280;26652;50.280;19.026;2023-05-19T00:37:22;99198.97;;;9.96;100.00
40920;BME280;26652;50.280;19.026;2023-05-19T00:39:23;99207.06;;;9.92;100.00
40920;BME280;26652;50.280;19.026;2023-05-19T00:41:23;99219.00;;;9.99;100.00
40920;BME280;26652;50.280;19.026;2023-05-19T00:43:24;99223.31;;;9.99;100.00
40920;BME280;26652;50.280;19.026;2023-05-19T00:45:26;99214.53;;;9.93;100.00
40920;BME280;26652;50.280;19.026;2023-05-19T00:47:27;99205.63;;;9.89;100.00
40920;BME280;26652;50.280;19.026;2023-05-19T00:49:27;99202.31;;;9.97;100.00
40920;BME280;26652;50.280;19.026;2023-05-19T00:51:28;99213.63;;;10.02;100.00
40920;BME280;26652;50.280;19.026;2023-05-19T00:53:31;99200.06;;;9.86;100.00
40920;BME280;26652;50.280;19.026;2023-05-19T00:55:34;99200.69;;;9.88;100.00
40920;BME280;26652;50.280;19.026;2023-05-19T00:57:36;99198.31;;;9.86;100.00
40920;BME280;26652;50.280;19.026;2023-05-19T00:59:38;99205.97;;;9.94;100.00
40920;BME280;26652;50.280;19.026;2023-05-19T01:01:38;99193.56;;;9.91;100.00
40920;BME280;26652;50.280;19.026;2023-05-19T01:03:40;99199.25;;;9.85;100.00
40920;BME280;26652;50.280;19.026;2023-05-19T01:05:42;99196.41;;;9.88;100.00
40920;BME280;26652;50.280;19.026;2023-05-19T01:07:47;99197.66;;;9.84;100.00
40920;BME280;26652;50.280;19.026;2023-05-19T01:09:52;99197.69;;;9.92;100.00
40920;BME280;26652;50.280;19.026;2023-05-19T01:11:53;99186.84;;;9.82;100.00
40920;BME280;26652;50.280;19.026;2023-05-19T01:13:54;99206.59;;;9.96;100.00
40920;BME280;26652;50.280;19.026;2023-05-19T01:16:12;99199.94;;;10.03;100.00
40920;BME280;26652;50.280;19.026;2023-05-19T01:18:23;99187.50;;;9.84;100.00
40920;BME280;26652;50.280;19.026;2023-05-19T01:20:37;99194.34;;;9.92;100.00
40920;BME280;26652;50.280;19.026;2023-05-19T01:25:54;99194.19;;;9.93;100.00
40920;BME280;26652;50.280;19.026;2023-05-19T01:30:33;99171.09;;;9.78;100.00
40920;BME280;26652;50.280;19.026;2023-05-19T01:32:37;99171.28;;;9.85;100.00
40920;BME280;26652;50.280;19.026;2023-05-19T01:34:42;99186.84;;;9.82;100.00
40920;BME280;26652;50.280;19.026;2023-05-19T01:36:46;99169.66;;;9.76;100.00
40920;BME280;26652;50.280;19.026;2023-05-19T01:38:50;99170.16;;;9.79;100.00
40920;BME280;26652;50.280;19.026;2023-05-19T01:40:53;99181.63;;;9.92;100.00
40920;BME280;26652;50.280;19.026;2023-05-19T01:42:56;99156.31;;;9.74;100.00
40920;BME280;26652;50.280;19.026;2023-05-19T01:44:57;99163.94;;;9.74;100.00
40920;BME280;26652;50.280;19.026;2023-05-19T01:46:58;99160.44;;;9.75;100.00
40920;BME280;26652;50.280;19.026;2023-05-19T01:49:00;99146.91;;;9.66;100.00
40920;BME280;26652;50.280;19.026;2023-05-19T01:51:01;99173.66;;;9.87;100.00
40920;BME280;26652;50.280;19.026;2023-05-19T01:53:02;99167.94;;;9.84;100.00
40920;BME280;26652;50.280;19.026;2023-05-19T01:55:03;99169.38;;;9.87;100.00
40920;BME280;26652;50.280;19.026;2023-05-19T01:59:51;99188.66;;;10.06;100.00
40920;BME280;26652;50.280;19.026;2023-05-19T02:01:56;99172.09;;;9.94;100.00
40920;BME280;26652;50.280;19.026;2023-05-19T02:04:15;99150.47;;;9.90;100.00
40920;BME280;26652;50.280;19.026;2023-05-19T02:06:40;99164.63;;;9.92;100.00
40920;BME280;26652;50.280;19.026;2023-05-19T02:09:01;99168.63;;;9.95;100.00
40920;BME280;26652;50.280;19.026;2023-05-19T02:11:08;99151.44;;;9.89;100.00
40920;BME280;26652;50.280;19.026;2023-05-19T02:13:12;99159.84;;;9.89;100.00
40920;BME280;26652;50.280;19.026;2023-05-19T02:15:20;99153.81;;;9.90;100.00
40920;BME280;26652;50.280;19.026;2023-05-19T02:17:22;99165.44;;;10.01;100.00
40920;BME280;26652;50.280;19.026;2023-05-19T02:19:24;99151.91;;;9.92;100.00
40920;BME280;26652;50.280;19.026;2023-05-19T02:21:26;99139.19;;;9.92;100.00
40920;BME280;26652;50.280;19.026;2023-05-19T02:23:26;99146.38;;;9.97;100.00
40920;BME280;26652;50.280;19.026;2023-05-19T02:25:27;99158.78;;;10.00;100.00
40920;BME280;26652;50.280;19.026;2023-05-19T02:27:28;99131.41;;;9.86;100.00
40920;BME280;26652;50.280;19.026;2023-05-19T02:29:29;99128.84;;;9.86;100.00
40920;BME280;26652;50.280;19.026;2023-05-19T02:31:30;99136.34;;;9.87;100.00
40920;BME280;26652;50.280;19.026;2023-05-19T02:33:31;99131.41;;;9.94;100.00
40920;BME280;26652;50.280;19.026;2023-05-19T02:35:31;99121.41;;;9.92;100.00
40920;BME280;26652;50.280;19.026;2023-05-19T02:37:33;99123.16;;;9.92;100.00
40920;BME280;26652;50.280;19.026;2023-05-19T02:39:34;99139.22;;;10.00;100.00
40920;BME280;26652;50.280;19.026;2023-05-19T02:41:36;99133.97;;;10.02;100.00
40920;BME280;26652;50.280;19.026;2023-05-19T02:43:36;99139.41;;;10.07;100.00
40920;BME280;26652;50.280;19.026;2023-05-19T02:45:37;99145.91;;;10.01;100.00
40920;BME280;26652;50.280;19.026;2023-05-19T02:47:38;99132.53;;;9.99;100.00
40920;BME280;26652;50.280;19.026;2023-05-19T02:49:39;99134.13;;;10.00;100.00
40920;BME280;26652;50.280;19.026;2023-05-19T02:51:40;99139.53;;;9.97;100.00
40920;BME280;26652;50.280;19.026;2023-05-19T02:53:41;99130.63;;;10.01;100.00
40920;BME280;26652;50.280;19.026;2023-05-19T02:55:42;99144.63;;;9.97;100.00
40920;BME280;26652;50.280;19.026;2023-05-19T02:57:43;99147.34;;;10.04;100.00
40920;BME280;26652;50.280;19.026;2023-05-19T02:59:43;99151.97;;;10.16;100.00
40920;BME280;26652;50.280;19.026;2023-05-19T03:01:44;99144.50;;;10.15;100.00
40920;BME280;26652;50.280;19.026;2023-05-19T03:03:46;99139.56;;;10.13;100.00
40920;BME280;26652;50.280;19.026;2023-05-19T03:05:47;99141.94;;;10.07;100.00
40920;BME280;26652;50.280;19.026;2023-05-19T03:07:48;99148.78;;;10.06;100.00
40920;BME280;26652;50.280;19.026;2023-05-19T03:09:49;99136.22;;;10.05;100.00
40920;BME280;26652;50.280;19.026;2023-05-19T03:11:50;99140.34;;;10.14;100.00
40920;BME280;26652;50.280;19.026;2023-05-19T03:13:51;99146.09;;;10.16;100.00
40920;BME280;26652;50.280;19.026;2023-05-19T03:15:51;99155.94;;;10.19;100.00
40920;BME280;26652;50.280;19.026;2023-05-19T03:17:52;99157.91;;;10.25;100.00
40920;BME280;26652;50.280;19.026;2023-05-19T03:19:53;99161.09;;;10.35;100.00
40920;BME280;26652;50.280;19.026;2023-05-19T03:21:54;99147.88;;;10.24;100.00
40920;BME280;26652;50.280;19.026;2023-05-19T03:23:55;99143.91;;;10.21;100.00
40920;BME280;26652;50.280;19.026;2023-05-19T03:25:56;99153.94;;;10.31;100.00
40920;BME280;26652;50.280;19.026;2023-05-19T03:27:57;99143.38;;;10.18;100.00
40920;BME280;26652;50.280;19.026;2023-05-19T03:29:58;99142.94;;;10.22;100.00
40920;BME280;26652;50.280;19.026;2023-05-19T03:31:58;99146.44;;;10.21;100.00
40920;BME280;26652;50.280;19.026;2023-05-19T03:33:59;99154.56;;;10.25;100.00
40920;BME280;26652;50.280;19.026;2023-05-19T03:36:00;99148.00;;;10.14;100.00
40920;BME280;26652;50.280;19.026;2023-05-19T03:38:01;99160.59;;;10.24;100.00
40920;BME280;26652;50.280;19.026;2023-05-19T03:40:02;99158.22;;;10.22;100.00
40920;BME280;26652;50.280;19.026;2023-05-19T03:42:05;99165.22;;;10.28;100.00
40920;BME280;26652;50.280;19.026;2023-05-19T03:44:05;99153.56;;;10.18;100.00
40920;BME280;26652;50.280;19.026;2023-05-19T03:46:06;99149.94;;;10.20;100.00
40920;BME280;26652;50.280;19.026;2023-05-19T03:48:07;99137.81;;;10.14;100.00
40920;BME280;26652;50.280;19.026;2023-05-19T03:50:08;99137.19;;;10.12;100.00
40920;BME280;26652;50.280;19.026;2023-05-19T03:52:09;99141.63;;;10.10;100.00
40920;BME280;26652;50.280;19.026;2023-05-19T03:54:10;99146.38;;;9.97;100.00
40920;BME280;26652;50.280;19.026;2023-05-19T03:56:11;99146.38;;;10.05;100.00
40920;BME280;26652;50.280;19.026;2023-05-19T03:58:13;99141.47;;;10.11;100.00
40920;BME280;26652;50.280;19.026;2023-05-19T04:00:14;99157.22;;;10.15;100.00
40920;BME280;26652;50.280;19.026;2023-05-19T04:02:16;99160.75;;;10.30;100.00
40920;BME280;26652;50.280;19.026;2023-05-19T04:04:16;99156.47;;;10.31;100.00
40920;BME280;26652;50.280;19.026;2023-05-19T04:06:17;99151.88;;;10.34;100.00
40920;BME280;26652;50.280;19.026;2023-05-19T04:08:18;99154.38;;;10.42;100.00
40920;BME280;26652;50.280;19.026;2023-05-19T04:10:19;99160.13;;;10.53;100.00
40920;BME280;26652;50.280;19.026;2023-05-19T04:12:20;99167.44;;;10.56;100.00
40920;BME280;26652;50.280;19.026;2023-05-19T04:14:21;99178.25;;;10.49;100.00
40920;BME280;26652;50.280;19.026;2023-05-19T04:16:22;99169.34;;;10.62;100.00
40920;BME280;26652;50.280;19.026;2023-05-19T04:18:23;99175.72;;;10.58;100.00
40920;BME280;26652;50.280;19.026;2023-05-19T04:20:23;99163.28;;;10.46;100.00
40920;BME280;26652;50.280;19.026;2023-05-19T04:22:24;99173.31;;;10.48;100.00
40920;BME280;26652;50.280;19.026;2023-05-19T04:24:25;99164.88;;;10.47;100.00
40920;BME280;26652;50.280;19.026;2023-05-19T04:26:26;99160.28;;;10.59;100.00
40920;BME280;26652;50.280;19.026;2023-05-19T04:28:30;99162.03;;;10.59;100.00
40920;BME280;26652;50.280;19.026;2023-05-19T04:30:31;99169.03;;;10.65;100.00
40920;BME280;26652;50.280;19.026;2023-05-19T04:32:32;99161.56;;;10.47;100.00
40920;BME280;26652;50.280;19.026;2023-05-19T04:34:34;99169.03;;;10.48;100.00
40920;BME280;26652;50.280;19.026;2023-05-19T04:36:35;99179.06;;;10.66;100.00
40920;BME280;26652;50.280;19.026;2023-05-19T04:38:36;99169.50;;;10.68;100.00
40920;BME280;26652;50.280;19.026;2023-05-19T04:40:39;99169.34;;;10.62;100.00
40920;BME280;26652;50.280;19.026;2023-05-19T04:42:40;99161.22;;;10.58;100.00
40920;BME280;26652;50.280;19.026;2023-05-19T04:44:41;99162.97;;;10.66;100.00
40920;BME280;26652;50.280;19.026;2023-05-19T04:46:42;99162.03;;;10.67;100.00
40920;BME280;26652;50.280;19.026;2023-05-19T04:48:44;99172.84;;;10.77;100.00
40920;BME280;26652;50.280;19.026;2023-05-19T04:50:45;99153.13;;;10.71;100.00
40920;BME280;26652;50.280;19.026;2023-05-19T04:52:48;99167.91;;;10.75;100.00
40920;BME280;26652;50.280;19.026;2023-05-19T04:54:48;99168.72;;;10.84;100.00
40920;BME280;26652;50.280;19.026;2023-05-19T04:56:49;99174.59;;;10.76;100.00
40920;BME280;26652;50.280;19.026;2023-05-19T04:58:50;99168.06;;;10.74;100.00
40920;BME280;26652;50.280;19.026;2023-05-19T05:00:53;99185.41;;;10.95;100.00
40920;BME280;26652;50.280;19.026;2023-05-19T05:02:58;99171.72;;;10.88;100.00
40920;BME280;26652;50.280;19.026;2023-05-19T05:04:59;99189.06;;;11.08;100.00
40920;BME280;26652;50.280;19.026;2023-05-19T05:06:59;99181.56;;;11.07;99.78
40920;BME280;26652;50.280;19.026;2023-05-19T05:09:00;99179.19;;;11.05;99.04
40920;BME280;26652;50.280;19.026;2023-05-19T05:11:03;99181.75;;;10.97;99.87
40920;BME280;26652;50.280;19.026;2023-05-19T05:13:04;99177.59;;;10.96;99.05
40920;BME280;26652;50.280;19.026;2023-05-19T05:15:06;99160.56;;;10.97;99.69
40920;BME280;26652;50.280;19.026;2023-05-19T05:17:07;99180.75;;;11.14;99.60
40920;BME280;26652;50.280;19.026;2023-05-19T05:19:09;99168.34;;;11.11;99.60
40920;BME280;26652;50.280;19.026;2023-05-19T05:21:10;99176.00;;;11.11;100.00
40920;BME280;26652;50.280;19.026;2023-05-19T05:23:12;99183.31;;;11.23;99.93
40920;BME280;26652;50.280;19.026;2023-05-19T05:25:14;99178.84;;;11.25;99.36
40920;BME280;26652;50.280;19.026;2023-05-19T05:27:16;99190.13;;;11.38;99.01
40920;BME280;26652;50.280;19.026;2023-05-19T05:29:16;99179.91;;;11.38;99.35
40920;BME280;26652;50.280;19.026;2023-05-19T05:31:17;99174.97;;;11.37;98.50
40920;BME280;26652;50.280;19.026;2023-05-19T05:33:18;99181.34;;;11.41;97.61
40920;BME280;26652;50.280;19.026;2023-05-19T05:35:19;99177.22;;;11.32;96.98
40920;BME280;26652;50.280;19.026;2023-05-19T05:37:22;99191.31;;;11.51;97.20
40920;BME280;26652;50.280;19.026;2023-05-19T05:39:23;99173.72;;;11.33;98.26
40920;BME280;26652;50.280;19.026;2023-05-19T05:41:24;99196.47;;;11.42;98.98
40920;BME280;26652;50.280;19.026;2023-05-19T05:43:27;99184.38;;;11.36;97.20
40920;BME280;26652;50.280;19.026;2023-05-19T05:45:27;99205.63;;;11.60;96.85
40920;BME280;26652;50.280;19.026;2023-05-19T05:47:28;99189.03;;;11.64;97.76
40920;BME280;26652;50.280;19.026;2023-05-19T05:49:29;99200.50;;;11.68;96.26
40920;BME280;26652;50.280;19.026;2023-05-19T05:51:30;99187.28;;;11.64;95.59
40920;BME280;26652;50.280;19.026;2023-05-19T05:53:36;99184.38;;;11.75;95.86
40920;BME280;26652;50.280;19.026;2023-05-19T05:55:39;99192.53;;;11.79;95.81
40920;BME280;26652;50.280;19.026;2023-05-19T05:57:40;99192.38;;;11.81;96.38
40920;BME280;26652;50.280;19.026;2023-05-19T05:59:41;99206.38;;;11.85;95.29
40920;BME280;26652;50.280;19.026;2023-05-19T06:01:44;99188.53;;;11.76;96.15
40920;BME280;26652;50.280;19.026;2023-05-19T06:03:46;99199.50;;;11.85;96.87
40920;BME280;26652;50.280;19.026;2023-05-19T06:05:46;99203.94;;;11.91;97.02
40920;BME280;26652;50.280;19.026;2023-05-19T06:07:47;99192.44;;;11.95;96.67
40920;BME280;26652;50.280;19.026;2023-05-19T06:09:48;99202.41;;;11.82;94.93
40920;BME280;26652;50.280;19.026;2023-05-19T06:11:49;99207.50;;;11.82;96.81
40920;BME280;26652;50.280;19.026;2023-05-19T06:13:50;99203.81;;;11.85;94.99
40920;BME280;26652;50.280;19.026;2023-05-19T06:15:51;99209.97;;;11.98;95.00
40920;BME280;26652;50.280;19.026;2023-05-19T06:17:51;99206.94;;;12.03;96.76
40920;BME280;26652;50.280;19.026;2023-05-19T06:19:54;99209.16;;;12.06;94.13
40920;BME280;26652;50.280;19.026;2023-05-19T06:21:54;99195.31;;;12.00;93.66
40920;BME280;26652;50.280;19.026;2023-05-19T06:23:55;99205.47;;;12.08;94.38
40920;BME280;26652;50.280;19.026;2023-05-19T06:25:56;99217.09;;;12.11;94.25
40920;BME280;26652;50.280;19.026;2023-05-19T06:27:57;99218.97;;;12.17;92.16
40920;BME280;26652;50.280;19.026;2023-05-19T06:29:57;99211.31;;;12.17;93.06
40920;BME280;26652;50.280;19.026;2023-05-19T06:31:58;99212.44;;;12.15;93.35
40920;BME280;26652;50.280;19.026;2023-05-19T06:33:59;99197.56;;;11.95;93.57
40920;BME280;26652;50.280;19.026;2023-05-19T06:36:00;99224.03;;;11.94;94.87
40920;BME280;26652;50.280;19.026;2023-05-19T06:38:00;99215.25;;;11.97;94.73
40920;BME280;26652;50.280;19.026;2023-05-19T06:40:02;99209.78;;;12.08;95.36
40920;BME280;26652;50.280;19.026;2023-05-19T06:42:03;99207.34;;;12.15;93.97
40920;BME280;26652;50.280;19.026;2023-05-19T06:44:06;99204.69;;;12.31;93.34
40920;BME280;26652;50.280;19.026;2023-05-19T06:46:08;99200.50;;;12.38;93.46
40920;BME280;26652;50.280;19.026;2023-05-19T06:48:09;99209.59;;;12.40;92.68
40920;BME280;26652;50.280;19.026;2023-05-19T06:50:09;99206.53;;;12.45;91.76
40920;BME280;26652;50.280;19.026;2023-05-19T06:52:10;99201.75;;;12.42;91.28
40920;BME280;26652;50.280;19.026;2023-05-19T06:54:11;99223.63;;;12.59;90.87
40920;BME280;26652;50.280;19.026;2023-05-19T06:56:15;99224.16;;;12.55;90.83
40920;BME280;26652;50.280;19.026;2023-05-19T06:58:17;99213.06;;;12.48;91.04
40920;BME280;26652;50.280;19.026;2023-05-19T07:00:18;99199.88;;;12.36;91.10
40920;BME280;26652;50.280;19.026;2023-05-19T07:02:19;99197.03;;;12.31;91.43
40920;BME280;26652;50.280;19.026;2023-05-19T07:04:20;99208.63;;;12.41;91.87
40920;BME280;26652;50.280;19.026;2023-05-19T07:06:21;99191.44;;;12.35;92.49
40920;BME280;26652;50.280;19.026;2023-05-19T07:08:21;99211.47;;;12.47;91.82
40920;BME280;26652;50.280;19.026;2023-05-19T07:10:22;99222.63;;;12.46;92.50
40920;BME280;26652;50.280;19.026;2023-05-19T07:12:23;99197.56;;;12.26;92.44
40920;BME280;26652;50.280;19.026;2023-05-19T07:14:26;99183.25;;;12.17;92.58
40920;BME280;26652;50.280;19.026;2023-05-19T07:16:27;99187.16;;;12.28;93.92
40920;BME280;26652;50.280;19.026;2023-05-19T07:18:27;99189.22;;;12.32;92.36
40920;BME280;26652;50.280;19.026;2023-05-19T07:20:31;99212.25;;;12.24;92.58
40920;BME280;26652;50.280;19.026;2023-05-19T07:22:31;99196.88;;;12.32;93.40
40920;BME280;26652;50.280;19.026;2023-05-19T07:24:34;99191.72;;;12.40;94.26
40920;BME280;26652;50.280;19.026;2023-05-19T07:26:35;99192.44;;;12.26;92.99
40920;BME280;26652;50.280;19.026;2023-05-19T07:28:36;99198.47;;;12.33;93.64
40920;BME280;26652;50.280;19.026;2023-05-19T07:30:37;99205.19;;;12.49;93.48
40920;BME280;26652;50.280;19.026;2023-05-19T07:32:38;99205.19;;;12.49;92.36
40920;BME280;26652;50.280;19.026;2023-05-19T07:34:39;99208.22;;;12.30;92.90
40920;BME280;26652;50.280;19.026;2023-05-19T07:36:40;99201.03;;;12.02;94.33
40920;BME280;26652;50.280;19.026;2023-05-19T07:38:41;99205.53;;;12.23;94.97
40920;BME280;26652;50.280;19.026;2023-05-19T07:40:42;99202.19;;;12.23;94.59
40920;BME280;26652;50.280;19.026;2023-05-19T07:42:43;99204.41;;;12.26;93.91
40920;BME280;26652;50.280;19.026;2023-05-19T07:44:44;99198.97;;;11.98;94.89
40920;BME280;26652;50.280;19.026;2023-05-19T07:46:45;99191.28;;;12.06;94.65
40920;BME280;26652;50.280;19.026;2023-05-19T07:48:46;99185.88;;;12.01;94.23
40920;BME280;26652;50.280;19.026;2023-05-19T07:50:47;99214.03;;;12.16;94.57
40920;BME280;26652;50.280;19.026;2023-05-19T07:52:48;99194.81;;;12.28;94.55
40920;BME280;26652;50.280;19.026;2023-05-19T07:54:49;99209.34;;;12.50;92.56
40920;BME280;26652;50.280;19.026;2023-05-19T07:56:50;99219.59;;;12.65;92.25
40920;BME280;26652;50.280;19.026;2023-05-19T07:58:51;99216.25;;;12.87;92.33
40920;BME280;26652;50.280;19.026;2023-05-19T08:00:52;99206.75;;;12.96;91.98
40920;BME280;26652;50.280;19.026;2023-05-19T08:02:52;99213.72;;;13.02;91.24
40920;BME280;26652;50.280;19.026;2023-05-19T08:04:53;99221.34;;;12.87;89.86
40920;BME280;26652;50.280;19.026;2023-05-19T08:06:54;99226.53;;;12.79;90.27
40920;BME280;26652;50.280;19.026;2023-05-19T08:08:54;99205.81;;;12.74;91.01
40920;BME280;26652;50.280;19.026;2023-05-19T08:10:55;99212.94;;;12.78;91.36
40920;BME280;26652;50.280;19.026;2023-05-19T08:12:56;99205.22;;;12.87;91.02
40920;BME280;26652;50.280;19.026;2023-05-19T08:14:57;99212.38;;;12.91;91.08
40920;BME280;26652;50.280;19.026;2023-05-19T08:16:58;99220.59;;;13.01;90.56
40920;BME280;26652;50.280;19.026;2023-05-19T08:18:58;99217.78;;;13.11;90.16
40920;BME280;26652;50.280;19.026;2023-05-19T08:21:02;99196.59;;;12.88;89.90
40920;BME280;26652;50.280;19.026;2023-05-19T08:23:02;99213.09;;;13.00;92.02
40920;BME280;26652;50.280;19.026;2023-05-19T08:25:04;99203.44;;;13.10;90.86
40920;BME280;26652;50.280;19.026;2023-05-19T08:27:05;99217.59;;;12.98;90.40
40920;BME280;26652;50.280;19.026;2023-05-19T08:29:06;99219.69;;;12.94;90.42
40920;BME280;26652;50.280;19.026;2023-05-19T08:31:07;99228.38;;;13.08;88.31
40920;BME280;26652;50.280;19.026;2023-05-19T08:33:08;99230.13;;;13.07;88.43
40920;BME280;26652;50.280;19.026;2023-05-19T08:35:08;99228.88;;;13.03;89.38
40920;BME280;26652;50.280;19.026;2023-05-19T08:37:10;99227.50;;;13.16;89.25
40920;BME280;26652;50.280;19.026;2023-05-19T08:39:11;99228.06;;;13.26;88.93
40920;BME280;26652;50.280;19.026;2023-05-19T08:41:13;99223.69;;;13.12;87.66
40920;BME280;26652;50.280;19.026;2023-05-19T08:43:14;99226.94;;;13.05;87.97
40920;BME280;26652;50.280;19.026;2023-05-19T08:45:15;99228.25;;;13.01;88.67
40920;BME280;26652;50.280;19.026;2023-05-19T08:47:16;99232.94;;;13.13;88.45
40920;BME280;26652;50.280;19.026;2023-05-19T08:49:22;99223.41;;;13.29;88.79
40920;BME280;26652;50.280;19.026;2023-05-19T08:53:35;99217.22;;;13.38;88.11
40920;BME280;26652;50.280;19.026;2023-05-19T08:55:45;99216.69;;;13.28;87.53
40920;BME280;26652;50.280;19.026;2023-05-19T08:57:49;99208.78;;;13.00;88.69
40920;BME280;26652;50.280;19.026;2023-05-19T08:59:53;99230.44;;;12.90;89.44
40920;BME280;26652;50.280;19.026;2023-05-19T09:01:54;99219.38;;;12.74;90.65
40920;BME280;26652;50.280;19.026;2023-05-19T09:03:55;99224.47;;;12.97;90.76
40920;BME280;26652;50.280;19.026;2023-05-19T09:05:57;99215.44;;;12.87;89.37
40920;BME280;26652;50.280;19.026;2023-05-19T09:07:57;99229.84;;;13.02;90.60
40920;BME280;26652;50.280;19.026;2023-05-19T09:10:02;99240.84;;;13.26;90.98
40920;BME280;26652;50.280;19.026;2023-05-19T09:12:03;99223.69;;;13.12;89.59
40920;BME280;26652;50.280;19.026;2023-05-19T09:14:04;99238.03;;;13.21;88.85
40920;BME280;26652;50.280;19.026;2023-05-19T09:16:05;99219.59;;;13.25;89.23
40920;BME280;26652;50.280;19.026;2023-05-19T09:18:09;99231.53;;;13.48;89.56
40920;BME280;26652;50.280;19.026;2023-05-19T09:20:10;99248.63;;;13.62;87.01
40920;BME280;26652;50.280;19.026;2023-05-19T09:22:14;99235.47;;;13.65;88.19
40920;BME280;26652;50.280;19.026;2023-05-19T09:24:15;99230.44;;;13.57;86.36
40920;BME280;26652;50.280;19.026;2023-05-19T09:26:16;99238.66;;;13.52;86.65
40920;BME280;26652;50.280;19.026;2023-05-19T09:28:26;99244.28;;;13.77;87.68
40920;BME280;26652;50.280;19.026;2023-05-19T09:30:29;99225.22;;;13.80;88.30
40920;BME280;26652;50.280;19.026;2023-05-19T09:32:30;99234.13;;;13.98;85.07
40920;BME280;26652;50.280;19.026;2023-05-19T09:34:31;99221.47;;;14.12;84.65
40920;BME280;26652;50.280;19.026;2023-05-19T09:36:31;99228.94;;;14.28;84.50
40920;BME280;26652;50.280;19.026;2023-05-19T09:38:34;99241.38;;;14.46;84.92
40920;BME280;26652;50.280;19.026;2023-05-19T09:40:35;99230.94;;;14.47;84.47
40920;BME280;26652;50.280;19.026;2023-05-19T09:42:37;99225.28;;;14.37;83.12
40920;BME280;26652;50.280;19.026;2023-05-19T09:44:37;99234.13;;;14.34;81.83
40920;BME280;26652;50.280;19.026;2023-05-19T09:46:46;99215.94;;;14.29;84.32
40920;BME280;26652;50.280;19.026;2023-05-19T09:48:47;99229.25;;;14.39;83.25
40920;BME280;26652;50.280;19.026;2023-05-19T09:50:48;99223.50;;;14.52;82.71
40920;BME280;26652;50.280;19.026;2023-05-19T09:52:50;99227.03;;;14.51;83.34
40920;BME280;26652;50.280;19.026;2023-05-19T09:54:52;99225.63;;;14.49;82.41
40920;BME280;26652;50.280;19.026;2023-05-19T09:57:02;99220.03;;;14.24;82.90
40920;BME280;26652;50.280;19.026;2023-05-19T09:59:04;99219.66;;;14.42;82.43
40920;BME280;26652;50.280;19.026;2023-05-19T10:01:07;99208.84;;;14.46;81.95
40920;BME280;26652;50.280;19.026;2023-05-19T10:03:08;99230.97;;;14.75;83.60
40920;BME280;26652;50.280;19.026;2023-05-19T10:05:11;99209.63;;;14.68;80.68
40920;BME280;26652;50.280;19.026;2023-05-19T10:07:13;99213.41;;;14.72;80.56
40920;BME280;26652;50.280;19.026;2023-05-19T10:09:15;99211.28;;;14.54;80.61
40920;BME280;26652;50.280;19.026;2023-05-19T10:11:16;99215.03;;;14.58;80.25
40920;BME280;26652;50.280;19.026;2023-05-19T10:13:18;99214.16;;;14.45;81.74
40920;BME280;26652;50.280;19.026;2023-05-19T10:15:19;99227.25;;;14.56;80.66
40920;BME280;26652;50.280;19.026;2023-05-19T10:17:20;99205.78;;;14.57;80.26
40920;BME280;26652;50.280;19.026;2023-05-19T10:19:27;99209.56;;;14.61;81.04
40920;BME280;26652;50.280;19.026;2023-05-19T10:21:28;99209.25;;;14.71;81.31
40920;BME280;26652;50.280;19.026;2023-05-19T10:23:29;99208.22;;;14.65;81.52
40920;BME280;26652;50.280;19.026;2023-05-19T10:25:32;99227.06;;;14.58;81.58
40920;BME280;26652;50.280;19.026;2023-05-19T10:27:36;99208.75;;;14.61;81.78
40920;BME280;26652;50.280;19.026;2023-05-19T10:29:40;99208.41;;;14.64;81.70
40920;BME280;26652;50.280;19.026;2023-05-19T10:31:43;99215.72;;;14.67;81.41
40920;BME280;26652;50.280;19.026;2023-05-19T10:34:20;99228.16;;;14.91;82.57
40920;BME280;26652;50.280;19.026;2023-05-19T10:36:41;99201.97;;;14.75;82.88
40920;BME280;26652;50.280;19.026;2023-05-19T10:38:57;99219.31;;;14.72;81.49
40920;BME280;26652;50.280;19.026;2023-05-19T10:45:57;99208.03;;;14.67;81.83
40920;BME280;26652;50.280;19.026;2023-05-19T10:47:58;99212.28;;;14.81;81.79
40920;BME280;26652;50.280;19.026;2023-05-19T10:49:59;99211.59;;;14.94;82.31
40920;BME280;26652;50.280;19.026;2023-05-19T10:52:00;99220.50;;;14.98;81.54